sensor_id;sensor_type;location;lat;lon;timestamp;P1;durP1;ratioP1;P2;durP2;ratioP2
4174;SDS011;2101;48.290;14.382;2023-12-28T00:01:33;44.97;;;2.60;;
4174;SDS011;2101;48.290;14.382;2023-12-28T00:03:59;44.73;;;1.87;;
4174;SDS011;2101;48.290;14.382;2023-12-28T00:06:24;40.10;;;2.43;;
4174;SDS011;2101;48.290;14.382;2023-12-28T00:08:50;43.43;;;2.17;;
4174;SDS011;2101;48.290;14.382;2023-12-28T00:11:16;43.50;;;1.80;;
4174;SDS011;2101;48.290;14.382;2023-12-28T00:13:42;43.10;;;2.20;;
4174;SDS011;2101;48.290;14.382;2023-12-28T00:16:07;42.30;;;2.40;;
4174;SDS011;2101;48.290;14.382;2023-12-28T00:18:33;40.80;;;2.50;;
4174;SDS011;2101;48.290;14.382;2023-12-28T00:20:59;41.63;;;2.50;;
4174;SDS011;2101;48.290;14.382;2023-12-28T00:23:24;40.73;;;2.10;;
4174;SDS011;2101;48.290;14.382;2023-12-28T00:25:50;40.70;;;2.10;;
4174;SDS011;2101;48.290;14.382;2023-12-28T00:28:16;42.07;;;2.37;;
4174;SDS011;2101;48.290;14.382;2023-12-28T00:30:41;41.70;;;2.67;;
4174;SDS011;2101;48.290;14.382;2023-12-28T00:33:07;43.03;;;3.00;;
4174;SDS011;2101;48.290;14.382;2023-12-28T00:35:33;41.03;;;2.60;;
4174;SDS011;2101;48.290;14.382;2023-12-28T00:37:59;50.37;;;2.10;;
4174;SDS011;2101;48.290;14.382;2023-12-28T00:40:24;41.23;;;2.50;;
4174;SDS011;2101;48.290;14.382;2023-12-28T00:42:50;42.30;;;2.70;;
4174;SDS011;2101;48.290;14.382;2023-12-28T00:45:16;42.07;;;3.00;;
4174;SDS011;2101;48.290;14.382;2023-12-28T00:47:41;44.00;;;2.90;;
4174;SDS011;2101;48.290;14.382;2023-12-28T00:50:10;43.50;;;2.97;;
4174;SDS011;2101;48.290;14.382;2023-12-28T00:52:41;42.50;;;3.20;;
4174;SDS011;2101;48.290;14.382;2023-12-28T00:55:07;45.57;;;2.77;;
4174;SDS011;2101;48.290;14.382;2023-12-28T00:57:33;46.27;;;2.90;;
4174;SDS011;2101;48.290;14.382;2023-12-28T00:59:59;44.80;;;3.60;;
4174;SDS011;2101;48.290;14.382;2023-12-28T01:02:25;42.90;;;3.17;;
4174;SDS011;2101;48.290;14.382;2023-12-28T01:04:51;44.80;;;3.23;;
4174;SDS011;2101;48.290;14.382;2023-12-28T01:07:17;56.43;;;3.90;;
4174;SDS011;2101;48.290;14.382;2023-12-28T01:09:44;64.20;;;5.80;;
4174;SDS011;2101;48.290;14.382;2023-12-28T01:12:10;45.77;;;5.20;;
4174;SDS011;2101;48.290;14.382;2023-12-28T01:14:36;56.73;;;4.97;;
4174;SDS011;2101;48.290;14.382;2023-12-28T01:17:01;44.40;;;3.97;;
4174;SDS011;2101;48.290;14.382;2023-12-28T01:19:27;52.80;;;4.73;;
4174;SDS011;2101;48.290;14.382;2023-12-28T01:21:53;46.87;;;4.73;;
4174;SDS011;2101;48.290;14.382;2023-12-28T01:24:19;49.97;;;5.00;;
4174;SDS011;2101;48.290;14.382;2023-12-28T01:26:44;45.00;;;4.40;;
4174;SDS011;2101;48.290;14.382;2023-12-28T01:29:11;65.53;;;5.37;;
4174;SDS011;2101;48.290;14.382;2023-12-28T01:31:37;48.07;;;4.93;;
4174;SDS011;2101;48.290;14.382;2023-12-28T01:34:04;54.03;;;4.73;;
4174;SDS011;2101;48.290;14.382;2023-12-28T01:36:30;59.00;;;5.20;;
4174;SDS011;2101;48.290;14.382;2023-12-28T01:38:55;52.03;;;4.30;;
4174;SDS011;2101;48.290;14.382;2023-12-28T01:41:21;54.23;;;5.13;;
4174;SDS011;2101;48.290;14.382;2023-12-28T01:43:47;83.63;;;8.30;;
4174;SDS011;2101;48.290;14.382;2023-12-28T01:46:19;58.73;;;5.40;;
4174;SDS011;2101;48.290;14.382;2023-12-28T01:48:47;43.90;;;3.90;;
4174;SDS011;2101;48.290;14.382;2023-12-28T01:51:15;43.47;;;3.60;;
4174;SDS011;2101;48.290;14.382;2023-12-28T01:53:41;42.47;;;3.40;;
4174;SDS011;2101;48.290;14.382;2023-12-28T01:56:10;49.77;;;4.73;;
4174;SDS011;2101;48.290;14.382;2023-12-28T01:58:36;48.03;;;3.93;;
4174;SDS011;2101;48.290;14.382;2023-12-28T02:01:05;57.00;;;5.90;;
4174;SDS011;2101;48.290;14.382;2023-12-28T02:03:31;65.83;;;8.97;;
4174;SDS011;2101;48.290;14.382;2023-12-28T02:05:57;68.97;;;8.60;;
4174;SDS011;2101;48.290;14.382;2023-12-28T02:08:25;65.40;;;9.17;;
4174;SDS011;2101;48.290;14.382;2023-12-28T02:10:51;77.87;;;7.90;;
4174;SDS011;2101;48.290;14.382;2023-12-28T02:13:17;52.40;;;5.67;;
4174;SDS011;2101;48.290;14.382;2023-12-28T02:15:43;53.23;;;6.20;;
4174;SDS011;2101;48.290;14.382;2023-12-28T02:18:12;47.97;;;4.50;;
4174;SDS011;2101;48.290;14.382;2023-12-28T02:20:42;49.23;;;5.60;;
4174;SDS011;2101;48.290;14.382;2023-12-28T02:23:09;56.77;;;4.77;;
4174;SDS011;2101;48.290;14.382;2023-12-28T02:25:35;47.07;;;4.60;;
4174;SDS011;2101;48.290;14.382;2023-12-28T02:28:01;47.53;;;4.27;;
4174;SDS011;2101;48.290;14.382;2023-12-28T02:30:27;55.37;;;6.53;;
4174;SDS011;2101;48.290;14.382;2023-12-28T02:35:45;65.43;;;8.10;;
4174;SDS011;2101;48.290;14.382;2023-12-28T02:38:17;64.90;;;10.67;;
4174;SDS011;2101;48.290;14.382;2023-12-28T02:40:44;94.37;;;15.33;;
4174;SDS011;2101;48.290;14.382;2023-12-28T02:43:12;118.47;;;23.33;;
4174;SDS011;2101;48.290;14.382;2023-12-28T02:45:38;104.70;;;20.57;;
4174;SDS011;2101;48.290;14.382;2023-12-28T02:48:04;94.10;;;17.40;;
4174;SDS011;2101;48.290;14.382;2023-12-28T02:50:31;62.57;;;8.70;;
4174;SDS011;2101;48.290;14.382;2023-12-28T02:52:57;132.13;;;10.23;;
4174;SDS011;2101;48.290;14.382;2023-12-28T02:55:23;63.50;;;10.00;;
4174;SDS011;2101;48.290;14.382;2023-12-28T02:57:49;60.20;;;8.20;;
4174;SDS011;2101;48.290;14.382;2023-12-28T03:00:16;71.37;;;9.90;;
4174;SDS011;2101;48.290;14.382;2023-12-28T03:02:42;77.50;;;12.07;;
4174;SDS011;2101;48.290;14.382;2023-12-28T03:05:07;75.50;;;10.83;;
4174;SDS011;2101;48.290;14.382;2023-12-28T03:07:34;82.80;;;11.80;;
4174;SDS011;2101;48.290;14.382;2023-12-28T03:10:00;68.70;;;9.80;;
4174;SDS011;2101;48.290;14.382;2023-12-28T03:12:28;63.23;;;9.00;;
4174;SDS011;2101;48.290;14.382;2023-12-28T03:14:54;70.83;;;11.70;;
4174;SDS011;2101;48.290;14.382;2023-12-28T03:17:19;119.40;;;11.90;;
4174;SDS011;2101;48.290;14.382;2023-12-28T03:19:45;59.83;;;6.70;;
4174;SDS011;2101;48.290;14.382;2023-12-28T03:22:11;59.30;;;6.83;;
4174;SDS011;2101;48.290;14.382;2023-12-28T03:24:37;62.00;;;7.70;;
4174;SDS011;2101;48.290;14.382;2023-12-28T03:27:03;63.77;;;10.20;;
4174;SDS011;2101;48.290;14.382;2023-12-28T03:29:29;71.87;;;9.60;;
4174;SDS011;2101;48.290;14.382;2023-12-28T03:31:55;60.57;;;9.70;;
4174;SDS011;2101;48.290;14.382;2023-12-28T03:34:21;66.57;;;11.17;;
4174;SDS011;2101;48.290;14.382;2023-12-28T03:36:47;73.73;;;10.73;;
4174;SDS011;2101;48.290;14.382;2023-12-28T03:39:14;64.23;;;10.30;;
4174;SDS011;2101;48.290;14.382;2023-12-28T03:41:40;77.60;;;9.17;;
4174;SDS011;2101;48.290;14.382;2023-12-28T03:44:06;58.73;;;8.80;;
4174;SDS011;2101;48.290;14.382;2023-12-28T03:46:32;76.10;;;8.77;;
4174;SDS011;2101;48.290;14.382;2023-12-28T03:48:58;73.70;;;10.13;;
4174;SDS011;2101;48.290;14.382;2023-12-28T03:51:23;66.03;;;8.37;;
4174;SDS011;2101;48.290;14.382;2023-12-28T03:53:49;74.23;;;9.90;;
4174;SDS011;2101;48.290;14.382;2023-12-28T03:56:21;59.33;;;9.80;;
4174;SDS011;2101;48.290;14.382;2023-12-28T03:58:48;61.80;;;8.87;;
4174;SDS011;2101;48.290;14.382;2023-12-28T04:01:15;85.00;;;10.60;;
4174;SDS011;2101;48.290;14.382;2023-12-28T04:03:43;68.13;;;10.43;;
4174;SDS011;2101;48.290;14.382;2023-12-28T04:06:08;62.13;;;9.00;;
4174;SDS011;2101;48.290;14.382;2023-12-28T04:08:34;75.50;;;10.70;;
4174;SDS011;2101;48.290;14.382;2023-12-28T04:11:00;72.27;;;10.27;;
4174;SDS011;2101;48.290;14.382;2023-12-28T04:13:25;59.83;;;7.70;;
4174;SDS011;2101;48.290;14.382;2023-12-28T04:15:51;56.20;;;7.10;;
4174;SDS011;2101;48.290;14.382;2023-12-28T04:18:17;64.13;;;8.67;;
4174;SDS011;2101;48.290;14.382;2023-12-28T04:20:43;56.33;;;8.73;;
4174;SDS011;2101;48.290;14.382;2023-12-28T04:23:11;56.50;;;7.67;;
4174;SDS011;2101;48.290;14.382;2023-12-28T04:25:36;61.60;;;7.63;;
4174;SDS011;2101;48.290;14.382;2023-12-28T04:28:03;60.67;;;7.00;;
4174;SDS011;2101;48.290;14.382;2023-12-28T04:30:28;51.30;;;7.17;;
4174;SDS011;2101;48.290;14.382;2023-12-28T04:32:54;54.77;;;6.83;;
4174;SDS011;2101;48.290;14.382;2023-12-28T04:35:20;58.43;;;6.30;;
4174;SDS011;2101;48.290;14.382;2023-12-28T04:37:45;57.70;;;6.57;;
4174;SDS011;2101;48.290;14.382;2023-12-28T04:40:11;54.80;;;6.97;;
4174;SDS011;2101;48.290;14.382;2023-12-28T04:42:39;64.13;;;6.30;;
4174;SDS011;2101;48.290;14.382;2023-12-28T04:45:06;63.00;;;7.60;;
4174;SDS011;2101;48.290;14.382;2023-12-28T04:47:32;68.77;;;9.47;;
4174;SDS011;2101;48.290;14.382;2023-12-28T04:49:57;515.53;;;23.40;;
4174;SDS011;2101;48.290;14.382;2023-12-28T04:52:23;57.03;;;7.73;;
4174;SDS011;2101;48.290;14.382;2023-12-28T04:54:49;54.63;;;8.33;;
4174;SDS011;2101;48.290;14.382;2023-12-28T04:57:15;64.40;;;8.07;;
4174;SDS011;2101;48.290;14.382;2023-12-28T04:59:41;68.10;;;9.03;;
4174;SDS011;2101;48.290;14.382;2023-12-28T05:02:07;68.43;;;8.37;;
4174;SDS011;2101;48.290;14.382;2023-12-28T05:04:33;64.07;;;8.20;;
4174;SDS011;2101;48.290;14.382;2023-12-28T05:07:03;61.30;;;9.50;;
4174;SDS011;2101;48.290;14.382;2023-12-28T05:09:29;61.10;;;8.23;;
4174;SDS011;2101;48.290;14.382;2023-12-28T05:11:55;57.97;;;8.20;;
4174;SDS011;2101;48.290;14.382;2023-12-28T05:14:20;259.97;;;15.57;;
4174;SDS011;2101;48.290;14.382;2023-12-28T05:16:46;155.00;;;11.43;;
4174;SDS011;2101;48.290;14.382;2023-12-28T05:19:12;144.33;;;10.80;;
4174;SDS011;2101;48.290;14.382;2023-12-28T05:21:38;112.87;;;11.23;;
4174;SDS011;2101;48.290;14.382;2023-12-28T05:24:03;62.77;;;9.73;;
4174;SDS011;2101;48.290;14.382;2023-12-28T05:26:29;66.00;;;8.33;;
4174;SDS011;2101;48.290;14.382;2023-12-28T05:28:55;57.80;;;8.47;;
4174;SDS011;2101;48.290;14.382;2023-12-28T05:31:21;55.47;;;8.10;;
4174;SDS011;2101;48.290;14.382;2023-12-28T05:33:46;64.77;;;8.97;;
4174;SDS011;2101;48.290;14.382;2023-12-28T05:36:15;60.80;;;8.23;;
4174;SDS011;2101;48.290;14.382;2023-12-28T05:38:41;55.13;;;7.50;;
4174;SDS011;2101;48.290;14.382;2023-12-28T05:41:10;53.03;;;6.73;;
4174;SDS011;2101;48.290;14.382;2023-12-28T05:43:39;49.37;;;5.87;;
4174;SDS011;2101;48.290;14.382;2023-12-28T05:46:05;49.83;;;5.03;;
4174;SDS011;2101;48.290;14.382;2023-12-28T05:48:31;43.37;;;4.40;;
4174;SDS011;2101;48.290;14.382;2023-12-28T05:51:00;46.27;;;4.67;;
4174;SDS011;2101;48.290;14.382;2023-12-28T05:53:26;51.23;;;5.90;;
4174;SDS011;2101;48.290;14.382;2023-12-28T05:55:56;45.90;;;5.00;;
4174;SDS011;2101;48.290;14.382;2023-12-28T05:58:28;45.17;;;4.07;;
4174;SDS011;2101;48.290;14.382;2023-12-28T06:00:56;49.30;;;4.40;;
4174;SDS011;2101;48.290;14.382;2023-12-28T06:03:22;52.70;;;5.47;;
4174;SDS011;2101;48.290;14.382;2023-12-28T06:05:53;53.80;;;5.07;;
4174;SDS011;2101;48.290;14.382;2023-12-28T06:08:19;48.00;;;5.07;;
4174;SDS011;2101;48.290;14.382;2023-12-28T06:10:45;50.87;;;5.80;;
4174;SDS011;2101;48.290;14.382;2023-12-28T06:13:11;53.17;;;7.77;;
4174;SDS011;2101;48.290;14.382;2023-12-28T06:15:37;48.67;;;6.30;;
4174;SDS011;2101;48.290;14.382;2023-12-28T06:18:03;53.03;;;6.57;;
4174;SDS011;2101;48.290;14.382;2023-12-28T06:20:29;45.00;;;5.30;;
4174;SDS011;2101;48.290;14.382;2023-12-28T06:22:58;51.40;;;6.00;;
4174;SDS011;2101;48.290;14.382;2023-12-28T06:25:24;54.50;;;6.93;;
4174;SDS011;2101;48.290;14.382;2023-12-28T06:27:50;48.00;;;6.00;;
4174;SDS011;2101;48.290;14.382;2023-12-28T06:30:16;53.40;;;5.80;;
4174;SDS011;2101;48.290;14.382;2023-12-28T06:32:42;60.07;;;8.23;;
4174;SDS011;2101;48.290;14.382;2023-12-28T06:35:12;58.20;;;8.50;;
4174;SDS011;2101;48.290;14.382;2023-12-28T06:37:38;54.93;;;7.73;;
4174;SDS011;2101;48.290;14.382;2023-12-28T06:40:04;54.10;;;8.03;;
4174;SDS011;2101;48.290;14.382;2023-12-28T06:42:30;56.70;;;9.00;;
4174;SDS011;2101;48.290;14.382;2023-12-28T06:44:56;51.77;;;7.70;;
4174;SDS011;2101;48.290;14.382;2023-12-28T06:47:22;58.43;;;7.93;;
4174;SDS011;2101;48.290;14.382;2023-12-28T06:49:48;57.40;;;7.77;;
4174;SDS011;2101;48.290;14.382;2023-12-28T06:52:15;59.03;;;8.70;;
4174;SDS011;2101;48.290;14.382;2023-12-28T06:54:41;51.47;;;7.60;;
4174;SDS011;2101;48.290;14.382;2023-12-28T06:57:07;57.23;;;7.90;;
4174;SDS011;2101;48.290;14.382;2023-12-28T06:59:33;53.73;;;7.80;;
4174;SDS011;2101;48.290;14.382;2023-12-28T07:02:00;58.87;;;8.37;;
4174;SDS011;2101;48.290;14.382;2023-12-28T07:04:26;53.20;;;7.70;;
4174;SDS011;2101;48.290;14.382;2023-12-28T07:06:54;49.90;;;5.90;;
4174;SDS011;2101;48.290;14.382;2023-12-28T07:09:20;81.80;;;12.97;;
4174;SDS011;2101;48.290;14.382;2023-12-28T07:11:46;435.50;;;90.43;;
4174;SDS011;2101;48.290;14.382;2023-12-28T07:14:12;116.37;;;20.10;;
4174;SDS011;2101;48.290;14.382;2023-12-28T07:16:39;57.17;;;8.70;;
4174;SDS011;2101;48.290;14.382;2023-12-28T07:19:05;57.13;;;7.60;;
4174;SDS011;2101;48.290;14.382;2023-12-28T07:21:31;49.83;;;6.97;;
4174;SDS011;2101;48.290;14.382;2023-12-28T07:23:57;46.37;;;5.40;;
4174;SDS011;2101;48.290;14.382;2023-12-28T07:26:23;60.43;;;7.50;;
4174;SDS011;2101;48.290;14.382;2023-12-28T07:28:50;55.20;;;7.83;;
4174;SDS011;2101;48.290;14.382;2023-12-28T07:31:26;52.40;;;7.43;;
4174;SDS011;2101;48.290;14.382;2023-12-28T07:33:52;54.77;;;7.87;;
4174;SDS011;2101;48.290;14.382;2023-12-28T07:36:19;62.10;;;8.23;;
4174;SDS011;2101;48.290;14.382;2023-12-28T07:38:46;61.33;;;8.90;;
4174;SDS011;2101;48.290;14.382;2023-12-28T07:41:12;51.97;;;7.97;;
4174;SDS011;2101;48.290;14.382;2023-12-28T07:43:38;60.73;;;7.30;;
4174;SDS011;2101;48.290;14.382;2023-12-28T07:46:04;52.00;;;6.40;;
4174;SDS011;2101;48.290;14.382;2023-12-28T07:48:30;52.63;;;7.20;;
4174;SDS011;2101;48.290;14.382;2023-12-28T07:50:57;54.10;;;7.17;;
4174;SDS011;2101;48.290;14.382;2023-12-28T07:53:23;50.77;;;6.70;;
4174;SDS011;2101;48.290;14.382;2023-12-28T07:55:49;47.57;;;6.50;;
4174;SDS011;2101;48.290;14.382;2023-12-28T07:58:15;50.40;;;6.77;;
4174;SDS011;2101;48.290;14.382;2023-12-28T08:00:41;48.80;;;6.00;;
4174;SDS011;2101;48.290;14.382;2023-12-28T08:03:07;226.93;;;17.40;;
4174;SDS011;2101;48.290;14.382;2023-12-28T08:05:33;373.47;;;29.10;;
4174;SDS011;2101;48.290;14.382;2023-12-28T08:07:59;652.47;;;45.27;;
4174;SDS011;2101;48.290;14.382;2023-12-28T08:10:26;936.67;;;76.27;;
4174;SDS011;2101;48.290;14.382;2023-12-28T08:12:52;912.87;;;76.77;;
4174;SDS011;2101;48.290;14.382;2023-12-28T08:15:18;978.83;;;73.67;;
4174;SDS011;2101;48.290;14.382;2023-12-28T08:17:44;1055.57;;;80.77;;
4174;SDS011;2101;48.290;14.382;2023-12-28T08:20:10;1065.17;;;84.27;;
4174;SDS011;2101;48.290;14.382;2023-12-28T08:22:36;1170.13;;;77.83;;
4174;SDS011;2101;48.290;14.382;2023-12-28T08:25:02;356.53;;;30.63;;
4174;SDS011;2101;48.290;14.382;2023-12-28T08:27:29;782.17;;;55.03;;
4174;SDS011;2101;48.290;14.382;2023-12-28T08:29:55;384.57;;;32.03;;
4174;SDS011;2101;48.290;14.382;2023-12-28T08:32:21;124.97;;;21.77;;
4174;SDS011;2101;48.290;14.382;2023-12-28T08:34:47;120.23;;;21.00;;
4174;SDS011;2101;48.290;14.382;2023-12-28T08:37:16;177.07;;;29.80;;
4174;SDS011;2101;48.290;14.382;2023-12-28T08:39:42;163.13;;;24.17;;
4174;SDS011;2101;48.290;14.382;2023-12-28T08:42:08;149.07;;;23.37;;
4174;SDS011;2101;48.290;14.382;2023-12-28T08:44:35;385.03;;;32.00;;
4174;SDS011;2101;48.290;14.382;2023-12-28T08:47:01;550.10;;;35.27;;
4174;SDS011;2101;48.290;14.382;2023-12-28T08:49:28;558.13;;;46.77;;
4174;SDS011;2101;48.290;14.382;2023-12-28T08:51:54;828.67;;;53.70;;
4174;SDS011;2101;48.290;14.382;2023-12-28T08:54:20;540.50;;;41.00;;
4174;SDS011;2101;48.290;14.382;2023-12-28T08:56:46;585.93;;;40.47;;
4174;SDS011;2101;48.290;14.382;2023-12-28T08:59:13;448.23;;;37.50;;
4174;SDS011;2101;48.290;14.382;2023-12-28T09:01:39;595.83;;;43.47;;
4174;SDS011;2101;48.290;14.382;2023-12-28T09:04:05;671.90;;;45.63;;
4174;SDS011;2101;48.290;14.382;2023-12-28T09:06:32;705.63;;;40.60;;
4174;SDS011;2101;48.290;14.382;2023-12-28T09:08:58;403.70;;;35.10;;
4174;SDS011;2101;48.290;14.382;2023-12-28T09:11:24;478.63;;;28.97;;
4174;SDS011;2101;48.290;14.382;2023-12-28T09:13:50;800.23;;;46.83;;
4174;SDS011;2101;48.290;14.382;2023-12-28T09:16:16;430.80;;;32.63;;
4174;SDS011;2101;48.290;14.382;2023-12-28T09:18:42;610.00;;;37.87;;
4174;SDS011;2101;48.290;14.382;2023-12-28T09:21:08;714.37;;;46.13;;
4174;SDS011;2101;48.290;14.382;2023-12-28T09:23:35;1018.37;;;66.17;;
4174;SDS011;2101;48.290;14.382;2023-12-28T09:26:02;654.37;;;43.67;;
4174;SDS011;2101;48.290;14.382;2023-12-28T09:28:29;687.83;;;47.23;;
4174;SDS011;2101;48.290;14.382;2023-12-28T09:30:55;440.93;;;36.10;;
4174;SDS011;2101;48.290;14.382;2023-12-28T09:33:21;437.73;;;39.63;;
4174;SDS011;2101;48.290;14.382;2023-12-28T09:35:47;501.80;;;41.30;;
4174;SDS011;2101;48.290;14.382;2023-12-28T09:38:13;548.73;;;42.40;;
4174;SDS011;2101;48.290;14.382;2023-12-28T09:40:43;503.53;;;46.47;;
4174;SDS011;2101;48.290;14.382;2023-12-28T09:43:13;733.43;;;60.97;;
4174;SDS011;2101;48.290;14.382;2023-12-28T09:45:39;544.97;;;52.30;;
4174;SDS011;2101;48.290;14.382;2023-12-28T09:48:05;724.10;;;53.97;;
4174;SDS011;2101;48.290;14.382;2023-12-28T09:50:33;940.17;;;72.10;;
4174;SDS011;2101;48.290;14.382;2023-12-28T09:53:00;829.37;;;64.10;;
4174;SDS011;2101;48.290;14.382;2023-12-28T09:55:26;892.03;;;78.13;;
4174;SDS011;2101;48.290;14.382;2023-12-28T09:57:52;737.00;;;65.50;;
4174;SDS011;2101;48.290;14.382;2023-12-28T10:00:19;1145.57;;;99.60;;
4174;SDS011;2101;48.290;14.382;2023-12-28T10:02:46;845.80;;;84.17;;
4174;SDS011;2101;48.290;14.382;2023-12-28T10:05:12;491.87;;;45.67;;
4174;SDS011;2101;48.290;14.382;2023-12-28T10:07:45;979.47;;;78.63;;
4174;SDS011;2101;48.290;14.382;2023-12-28T10:10:13;766.53;;;53.60;;
4174;SDS011;2101;48.290;14.382;2023-12-28T10:12:39;424.17;;;42.30;;
4174;SDS011;2101;48.290;14.382;2023-12-28T10:15:05;512.23;;;38.70;;
4174;SDS011;2101;48.290;14.382;2023-12-28T10:17:34;471.87;;;33.03;;
4174;SDS011;2101;48.290;14.382;2023-12-28T10:20:04;660.30;;;39.03;;
4174;SDS011;2101;48.290;14.382;2023-12-28T10:22:34;454.73;;;41.13;;
4174;SDS011;2101;48.290;14.382;2023-12-28T10:25:01;609.77;;;43.47;;
4174;SDS011;2101;48.290;14.382;2023-12-28T10:27:28;532.90;;;43.80;;
4174;SDS011;2101;48.290;14.382;2023-12-28T10:29:54;349.57;;;34.80;;
4174;SDS011;2101;48.290;14.382;2023-12-28T10:32:21;296.20;;;33.60;;
4174;SDS011;2101;48.290;14.382;2023-12-28T10:34:49;570.80;;;40.37;;
4174;SDS011;2101;48.290;14.382;2023-12-28T10:37:16;794.57;;;54.87;;
4174;SDS011;2101;48.290;14.382;2023-12-28T10:39:44;567.30;;;44.63;;
4174;SDS011;2101;48.290;14.382;2023-12-28T10:42:12;363.50;;;30.80;;
4174;SDS011;2101;48.290;14.382;2023-12-28T10:44:41;538.33;;;39.67;;
4174;SDS011;2101;48.290;14.382;2023-12-28T10:47:10;280.70;;;26.70;;
4174;SDS011;2101;48.290;14.382;2023-12-28T10:49:37;490.37;;;36.53;;
4174;SDS011;2101;48.290;14.382;2023-12-28T10:52:05;249.13;;;29.80;;
4174;SDS011;2101;48.290;14.382;2023-12-28T10:54:46;259.20;;;25.57;;
4174;SDS011;2101;48.290;14.382;2023-12-28T11:00:10;133.70;;;18.40;;
4174;SDS011;2101;48.290;14.382;2023-12-28T11:02:38;111.60;;;19.27;;
4174;SDS011;2101;48.290;14.382;2023-12-28T11:05:06;119.00;;;19.70;;
4174;SDS011;2101;48.290;14.382;2023-12-28T11:07:33;94.70;;;18.20;;
4174;SDS011;2101;48.290;14.382;2023-12-28T11:10:00;105.67;;;19.63;;
4174;SDS011;2101;48.290;14.382;2023-12-28T11:12:27;120.37;;;23.27;;
4174;SDS011;2101;48.290;14.382;2023-12-28T11:14:53;159.10;;;26.30;;
4174;SDS011;2101;48.290;14.382;2023-12-28T11:17:20;260.67;;;32.27;;
4174;SDS011;2101;48.290;14.382;2023-12-28T11:19:46;465.13;;;37.70;;
4174;SDS011;2101;48.290;14.382;2023-12-28T11:22:13;856.33;;;68.03;;
4174;SDS011;2101;48.290;14.382;2023-12-28T11:24:39;323.47;;;31.63;;
4174;SDS011;2101;48.290;14.382;2023-12-28T11:27:05;139.50;;;25.53;;
4174;SDS011;2101;48.290;14.382;2023-12-28T11:29:32;312.83;;;31.73;;
4174;SDS011;2101;48.290;14.382;2023-12-28T11:31:58;356.03;;;33.43;;
4174;SDS011;2101;48.290;14.382;2023-12-28T11:34:26;319.43;;;28.83;;
4174;SDS011;2101;48.290;14.382;2023-12-28T11:36:52;145.20;;;23.93;;
4174;SDS011;2101;48.290;14.382;2023-12-28T11:39:25;129.47;;;22.70;;
4174;SDS011;2101;48.290;14.382;2023-12-28T11:41:58;170.70;;;27.37;;
4174;SDS011;2101;48.290;14.382;2023-12-28T11:44:26;125.97;;;25.00;;
4174;SDS011;2101;48.290;14.382;2023-12-28T11:46:52;147.60;;;25.53;;
4174;SDS011;2101;48.290;14.382;2023-12-28T11:49:24;227.40;;;28.40;;
4174;SDS011;2101;48.290;14.382;2023-12-28T11:51:54;311.23;;;32.60;;
4174;SDS011;2101;48.290;14.382;2023-12-28T11:54:20;311.13;;;31.47;;
4174;SDS011;2101;48.290;14.382;2023-12-28T11:56:46;412.10;;;35.20;;
4174;SDS011;2101;48.290;14.382;2023-12-28T11:59:12;546.70;;;36.73;;
4174;SDS011;2101;48.290;14.382;2023-12-28T12:01:38;158.03;;;26.07;;
4174;SDS011;2101;48.290;14.382;2023-12-28T12:04:05;140.87;;;26.83;;
4174;SDS011;2101;48.290;14.382;2023-12-28T12:06:32;184.80;;;25.70;;
4174;SDS011;2101;48.290;14.382;2023-12-28T12:08:58;253.87;;;23.27;;
4174;SDS011;2101;48.290;14.382;2023-12-28T12:11:24;245.83;;;23.80;;
4174;SDS011;2101;48.290;14.382;2023-12-28T12:13:51;121.17;;;21.57;;
4174;SDS011;2101;48.290;14.382;2023-12-28T12:16:17;101.63;;;20.50;;
4174;SDS011;2101;48.290;14.382;2023-12-28T12:18:43;96.57;;;21.57;;
4174;SDS011;2101;48.290;14.382;2023-12-28T12:21:10;109.53;;;24.00;;
4174;SDS011;2101;48.290;14.382;2023-12-28T12:23:37;205.60;;;27.20;;
4174;SDS011;2101;48.290;14.382;2023-12-28T12:26:06;176.83;;;29.97;;
4174;SDS011;2101;48.290;14.382;2023-12-28T12:28:33;135.17;;;24.23;;
4174;SDS011;2101;48.290;14.382;2023-12-28T12:30:59;105.57;;;22.47;;
4174;SDS011;2101;48.290;14.382;2023-12-28T12:33:29;152.67;;;26.97;;
4174;SDS011;2101;48.290;14.382;2023-12-28T12:35:59;112.03;;;22.60;;
4174;SDS011;2101;48.290;14.382;2023-12-28T12:38:25;162.93;;;24.53;;
4174;SDS011;2101;48.290;14.382;2023-12-28T12:40:52;167.23;;;25.27;;
4174;SDS011;2101;48.290;14.382;2023-12-28T12:43:18;176.53;;;25.17;;
4174;SDS011;2101;48.290;14.382;2023-12-28T12:45:44;137.50;;;22.83;;
4174;SDS011;2101;48.290;14.382;2023-12-28T12:48:11;116.90;;;21.23;;
4174;SDS011;2101;48.290;14.382;2023-12-28T12:50:37;129.37;;;23.17;;
4174;SDS011;2101;48.290;14.382;2023-12-28T12:53:07;124.23;;;25.10;;
4174;SDS011;2101;48.290;14.382;2023-12-28T12:55:35;114.10;;;23.40;;
4174;SDS011;2101;48.290;14.382;2023-12-28T12:58:04;121.87;;;23.53;;
4174;SDS011;2101;48.290;14.382;2023-12-28T13:00:30;120.53;;;22.77;;
4174;SDS011;2101;48.290;14.382;2023-12-28T13:02:59;121.80;;;24.37;;
4174;SDS011;2101;48.290;14.382;2023-12-28T13:05:25;119.53;;;24.70;;
4174;SDS011;2101;48.290;14.382;2023-12-28T13:07:51;125.83;;;29.53;;
4174;SDS011;2101;48.290;14.382;2023-12-28T13:10:17;97.67;;;19.17;;
4174;SDS011;2101;48.290;14.382;2023-12-28T13:12:43;94.10;;;16.50;;
4174;SDS011;2101;48.290;14.382;2023-12-28T13:15:09;94.27;;;19.70;;
4174;SDS011;2101;48.290;14.382;2023-12-28T13:17:36;97.50;;;19.10;;
4174;SDS011;2101;48.290;14.382;2023-12-28T13:20:03;92.73;;;18.57;;
4174;SDS011;2101;48.290;14.382;2023-12-28T13:22:31;81.13;;;14.67;;
4174;SDS011;2101;48.290;14.382;2023-12-28T13:24:57;99.53;;;20.50;;
4174;SDS011;2101;48.290;14.382;2023-12-28T13:27:23;122.80;;;23.07;;
4174;SDS011;2101;48.290;14.382;2023-12-28T13:29:49;142.93;;;31.30;;
4174;SDS011;2101;48.290;14.382;2023-12-28T13:32:15;151.73;;;30.60;;
4174;SDS011;2101;48.290;14.382;2023-12-28T13:34:41;114.57;;;24.87;;
4174;SDS011;2101;48.290;14.382;2023-12-28T13:37:07;124.90;;;27.07;;
4174;SDS011;2101;48.290;14.382;2023-12-28T13:39:34;108.23;;;23.63;;
4174;SDS011;2101;48.290;14.382;2023-12-28T13:42:04;123.33;;;24.00;;
4174;SDS011;2101;48.290;14.382;2023-12-28T13:44:32;116.23;;;26.80;;
4174;SDS011;2101;48.290;14.382;2023-12-28T13:46:58;137.47;;;26.13;;
4174;SDS011;2101;48.290;14.382;2023-12-28T13:49:24;138.70;;;28.77;;
4174;SDS011;2101;48.290;14.382;2023-12-28T13:51:51;112.13;;;24.10;;
4174;SDS011;2101;48.290;14.382;2023-12-28T13:54:17;112.63;;;20.30;;
4174;SDS011;2101;48.290;14.382;2023-12-28T13:56:46;102.60;;;19.97;;
4174;SDS011;2101;48.290;14.382;2023-12-28T13:59:13;96.83;;;18.37;;
4174;SDS011;2101;48.290;14.382;2023-12-28T14:01:39;92.77;;;17.67;;
4174;SDS011;2101;48.290;14.382;2023-12-28T14:04:05;93.37;;;18.70;;
4174;SDS011;2101;48.290;14.382;2023-12-28T14:06:32;95.00;;;17.37;;
4174;SDS011;2101;48.290;14.382;2023-12-28T14:08:58;95.60;;;16.83;;
4174;SDS011;2101;48.290;14.382;2023-12-28T14:11:24;80.20;;;16.30;;
4174;SDS011;2101;48.290;14.382;2023-12-28T14:13:50;86.30;;;16.73;;
4174;SDS011;2101;48.290;14.382;2023-12-28T14:16:17;92.50;;;18.87;;
4174;SDS011;2101;48.290;14.382;2023-12-28T14:18:43;96.63;;;17.83;;
4174;SDS011;2101;48.290;14.382;2023-12-28T14:21:09;100.13;;;18.30;;
4174;SDS011;2101;48.290;14.382;2023-12-28T14:23:37;87.97;;;16.23;;
4174;SDS011;2101;48.290;14.382;2023-12-28T14:26:05;86.00;;;17.00;;
4174;SDS011;2101;48.290;14.382;2023-12-28T14:28:34;93.20;;;15.80;;
4174;SDS011;2101;48.290;14.382;2023-12-28T14:31:01;93.93;;;16.97;;
4174;SDS011;2101;48.290;14.382;2023-12-28T14:33:28;70.47;;;11.63;;
4174;SDS011;2101;48.290;14.382;2023-12-28T14:35:54;83.43;;;14.53;;
4174;SDS011;2101;48.290;14.382;2023-12-28T14:38:20;73.23;;;14.33;;